sensor_id;sensor_type;location;lat;lon;timestamp;pressure;altitude;pressure_sealevel;temperature;humidity
7760;BME280;3924;48.830;9.262;2022-10-16T00:01:43;98477.84;;;16.40;85.47
7760;BME280;3924;48.830;9.262;2022-10-16T00:04:10;98470.44;;;16.41;85.85
7760;BME280;3924;48.830;9.262;2022-10-16T00:06:37;98477.03;;;16.40;86.20
7760;BME280;3924;48.830;9.262;2022-10-16T00:09:04;98472.03;;;16.42;85.95
7760;BME280;3924;48.830;9.262;2022-10-16T00:11:33;98460.94;;;16.38;86.35
7760;BME280;3924;48.830;9.262;2022-10-16T00:14:01;98451.03;;;16.34;85.69
7760;BME280;3924;48.830;9.262;2022-10-16T00:16:28;98456.50;;;16.34;86.12
7760;BME280;3924;48.830;9.262;2022-10-16T00:18:54;98452.63;;;16.35;85.44
7760;BME280;3924;48.830;9.262;2022-10-16T00:21:23;98459.69;;;16.36;85.04
7760;BME280;3924;48.830;9.262;2022-10-16T00:24:01;98460.81;;;16.35;85.06
7760;BME280;3924;48.830;9.262;2022-10-16T00:26:30;98455.69;;;16.33;85.21
7760;BME280;3924;48.830;9.262;2022-10-16T00:28:57;98449.72;;;16.31;85.67
7760;BME280;3924;48.830;9.262;2022-10-16T00:31:24;98457.16;;;16.31;85.53
7760;BME280;3924;48.830;9.262;2022-10-16T00:33:51;98457.34;;;16.26;85.87
7760;BME280;3924;48.830;9.262;2022-10-16T00:36:20;98459.16;;;16.22;85.59
7760;BME280;3924;48.830;9.262;2022-10-16T00:38:50;98463.03;;;16.21;86.24
7760;BME280;3924;48.830;9.262;2022-10-16T00:41:19;98467.53;;;16.17;85.98
7760;BME280;3924;48.830;9.262;2022-10-16T00:43:58;98463.66;;;16.18;85.94
7760;BME280;3924;48.830;9.262;2022-10-16T00:46:35;98465.41;;;16.22;85.50
7760;BME280;3924;48.830;9.262;2022-10-16T00:49:08;98470.53;;;16.24;86.45
7760;BME280;3924;48.830;9.262;2022-10-16T00:51:44;98474.09;;;16.24;85.22
7760;BME280;3924;48.830;9.262;2022-10-16T00:54:17;98471.81;;;16.26;85.12
7760;BME280;3924;48.830;9.262;2022-10-16T00:56:46;98470.53;;;16.24;85.40
7760;BME280;3924;48.830;9.262;2022-10-16T00:59:19;98458.34;;;16.21;86.12
7760;BME280;3924;48.830;9.262;2022-10-16T01:01:47;98464.47;;;16.18;86.00
7760;BME280;3924;48.830;9.262;2022-10-16T01:04:14;98455.78;;;16.16;85.54
7760;BME280;3924;48.830;9.262;2022-10-16T01:06:52;98463.53;;;16.14;85.56
7760;BME280;3924;48.830;9.262;2022-10-16T01:09:36;98477.53;;;16.12;85.68
7760;BME280;3924;48.830;9.262;2022-10-16T01:12:27;98485.25;;;16.10;86.18
7760;BME280;3924;48.830;9.262;2022-10-16T01:15:29;98487.66;;;16.12;85.76
7760;BME280;3924;48.830;9.262;2022-10-16T01:18:03;98481.41;;;16.11;85.77
7760;BME280;3924;48.830;9.262;2022-10-16T01:20:35;98485.25;;;16.10;86.31
7760;BME280;3924;48.830;9.262;2022-10-16T01:23:10;98485.25;;;16.10;86.37
7760;BME280;3924;48.830;9.262;2022-10-16T01:28:24;98477.06;;;16.10;85.90
7760;BME280;3924;48.830;9.262;2022-10-16T01:30:57;98475.00;;;16.07;86.44
7760;BME280;3924;48.830;9.262;2022-10-16T01:33:34;98467.13;;;16.06;85.63
7760;BME280;3924;48.830;9.262;2022-10-16T01:36:09;98478.88;;;16.06;86.79
7760;BME280;3924;48.830;9.262;2022-10-16T01:38:38;98482.88;;;16.09;85.59
7760;BME280;3924;48.830;9.262;2022-10-16T01:41:11;98476.59;;;16.08;85.71
7760;BME280;3924;48.830;9.262;2022-10-16T01:43:45;98475.47;;;16.09;85.62
7760;BME280;3924;48.830;9.262;2022-10-16T01:46:17;98473.88;;;16.08;85.68
7760;BME280;3924;48.830;9.262;2022-10-16T01:48:46;98471.13;;;16.08;86.50
7760;BME280;3924;48.830;9.262;2022-10-16T01:51:14;98471.59;;;16.10;85.46
7760;BME280;3924;48.830;9.262;2022-10-16T01:53:45;98475.13;;;16.11;86.26
7760;BME280;3924;48.830;9.262;2022-10-16T01:56:16;98473.19;;;16.11;85.63
7760;BME280;3924;48.830;9.262;2022-10-16T01:58:49;98470.47;;;16.11;85.95
7760;BME280;3924;48.830;9.262;2022-10-16T02:01:19;98463.72;;;16.09;86.04
7760;BME280;3924;48.830;9.262;2022-10-16T02:03:49;98464.88;;;16.08;85.69
7760;BME280;3924;48.830;9.262;2022-10-16T02:06:18;98467.13;;;16.06;86.78
7760;BME280;3924;48.830;9.262;2022-10-16T02:08:45;98463.09;;;16.03;85.77
7760;BME280;3924;48.830;9.262;2022-10-16T02:11:11;98456.72;;;15.99;86.62
7760;BME280;3924;48.830;9.262;2022-10-16T02:13:45;98468.28;;;15.96;86.01
7760;BME280;3924;48.830;9.262;2022-10-16T02:16:13;98464.31;;;15.94;86.16
7760;BME280;3924;48.830;9.262;2022-10-16T02:18:41;98464.63;;;15.92;86.89
7760;BME280;3924;48.830;9.262;2022-10-16T02:21:19;98476.56;;;15.88;86.23
7760;BME280;3924;48.830;9.262;2022-10-16T02:23:57;98469.00;;;15.84;86.20
7760;BME280;3924;48.830;9.262;2022-10-16T02:26:40;98472.06;;;15.83;86.47
7760;BME280;3924;48.830;9.262;2022-10-16T02:29:12;98475.47;;;15.80;86.21
7760;BME280;3924;48.830;9.262;2022-10-16T02:31:42;98476.91;;;15.77;85.93
7760;BME280;3924;48.830;9.262;2022-10-16T02:34:10;98473.72;;;15.75;86.23
7760;BME280;3924;48.830;9.262;2022-10-16T02:36:39;98472.09;;;15.74;86.88
7760;BME280;3924;48.830;9.262;2022-10-16T02:39:07;98463.44;;;15.72;86.33
7760;BME280;3924;48.830;9.262;2022-10-16T02:41:34;98462.16;;;15.70;87.19
7760;BME280;3924;48.830;9.262;2022-10-16T02:44:01;98467.16;;;15.68;87.22
7760;BME280;3924;48.830;9.262;2022-10-16T02:46:27;98469.41;;;15.66;86.55
7760;BME280;3924;48.830;9.262;2022-10-16T02:48:54;98471.66;;;15.64;86.91
7760;BME280;3924;48.830;9.262;2022-10-16T02:51:20;98470.06;;;15.63;87.28
7760;BME280;3924;48.830;9.262;2022-10-16T02:53:47;98480.81;;;15.59;86.96
7760;BME280;3924;48.830;9.262;2022-10-16T02:56:13;98483.06;;;15.57;86.75
7760;BME280;3924;48.830;9.262;2022-10-16T02:58:40;98473.59;;;15.54;87.05
7760;BME280;3924;48.830;9.262;2022-10-16T03:01:06;98480.53;;;15.52;87.26
7760;BME280;3924;48.830;9.262;2022-10-16T03:03:33;98486.31;;;15.50;87.79
7760;BME280;3924;48.830;9.262;2022-10-16T03:05:59;98489.03;;;15.50;86.97
7760;BME280;3924;48.830;9.262;2022-10-16T03:08:25;98490.16;;;15.49;87.10
7760;BME280;3924;48.830;9.262;2022-10-16T03:10:52;98486.31;;;15.50;87.53
7760;BME280;3924;48.830;9.262;2022-10-16T03:13:19;98494.50;;;15.50;88.10
7760;BME280;3924;48.830;9.262;2022-10-16T03:15:46;98483.09;;;15.48;87.68
7760;BME280;3924;48.830;9.262;2022-10-16T03:18:13;98483.78;;;15.45;87.68
7760;BME280;3924;48.830;9.262;2022-10-16T03:20:39;98484.91;;;15.44;87.08
7760;BME280;3924;48.830;9.262;2022-10-16T03:23:06;98490.38;;;15.44;87.58
7760;BME280;3924;48.830;9.262;2022-10-16T03:25:34;98490.38;;;15.44;87.89
7760;BME280;3924;48.830;9.262;2022-10-16T03:28:00;98494.69;;;15.45;87.43
7760;BME280;3924;48.830;9.262;2022-10-16T03:30:27;98490.38;;;15.44;87.72
7760;BME280;3924;48.830;9.262;2022-10-16T03:32:53;98487.63;;;15.44;87.49
7760;BME280;3924;48.830;9.262;2022-10-16T03:35:21;98491.47;;;15.43;87.03
7760;BME280;3924;48.830;9.262;2022-10-16T03:37:48;98484.06;;;15.44;87.79
7760;BME280;3924;48.830;9.262;2022-10-16T03:40:14;98481.66;;;15.42;87.58
7760;BME280;3924;48.830;9.262;2022-10-16T03:42:44;98481.66;;;15.42;88.25
7760;BME280;3924;48.830;9.262;2022-10-16T03:45:11;98492.59;;;15.42;88.03
7760;BME280;3924;48.830;9.262;2022-10-16T03:47:37;98480.75;;;15.38;87.65
7760;BME280;3924;48.830;9.262;2022-10-16T03:50:04;98487.81;;;15.39;88.35
7760;BME280;3924;48.830;9.262;2022-10-16T03:52:31;98484.56;;;15.37;88.40
7760;BME280;3924;48.830;9.262;2022-10-16T03:54:58;98489.22;;;15.37;88.23
7760;BME280;3924;48.830;9.262;2022-10-16T03:57:24;98492.28;;;15.35;88.41
7760;BME280;3924;48.830;9.262;2022-10-16T03:59:51;98488.75;;;15.35;87.65
7760;BME280;3924;48.830;9.262;2022-10-16T04:02:18;98501.16;;;15.32;88.24
7760;BME280;3924;48.830;9.262;2022-10-16T04:04:44;98506.13;;;15.30;88.18
7760;BME280;3924;48.830;9.262;2022-10-16T04:07:10;98500.53;;;15.26;87.95
7760;BME280;3924;48.830;9.262;2022-10-16T04:09:37;98503.88;;;15.23;88.41
7760;BME280;3924;48.830;9.262;2022-10-16T04:12:03;98501.34;;;15.18;88.31
7760;BME280;3924;48.830;9.262;2022-10-16T04:14:30;98503.91;;;15.15;88.09
7760;BME280;3924;48.830;9.262;2022-10-16T04:16:56;98506.97;;;15.13;88.76
7760;BME280;3924;48.830;9.262;2022-10-16T04:19:22;98501.50;;;15.13;88.42
7760;BME280;3924;48.830;9.262;2022-10-16T04:21:49;98505.69;;;15.11;88.03
7760;BME280;3924;48.830;9.262;2022-10-16T04:24:15;98501.84;;;15.12;88.93
7760;BME280;3924;48.830;9.262;2022-10-16T04:26:41;98506.16;;;15.13;88.60
7760;BME280;3924;48.830;9.262;2022-10-16T04:29:08;98504.06;;;15.10;88.78
7760;BME280;3924;48.830;9.262;2022-10-16T04:31:34;98502.97;;;15.11;88.44
7760;BME280;3924;48.830;9.262;2022-10-16T04:34:01;98502.97;;;15.11;88.34
7760;BME280;3924;48.830;9.262;2022-10-16T04:36:27;98502.97;;;15.11;88.17
7760;BME280;3924;48.830;9.262;2022-10-16T04:38:54;98508.44;;;15.11;88.51
7760;BME280;3924;48.830;9.262;2022-10-16T04:41:21;98501.34;;;15.10;89.36
7760;BME280;3924;48.830;9.262;2022-10-16T04:43:47;98513.38;;;15.09;88.40
7760;BME280;3924;48.830;9.262;2022-10-16T04:46:14;98515.31;;;15.08;88.71
7760;BME280;3924;48.830;9.262;2022-10-16T04:48:40;98517.72;;;15.10;89.15
7760;BME280;3924;48.830;9.262;2022-10-16T04:51:06;98516.13;;;15.09;88.50
7760;BME280;3924;48.830;9.262;2022-10-16T04:53:33;98519.50;;;15.05;88.43
7760;BME280;3924;48.830;9.262;2022-10-16T04:56:00;98522.88;;;15.02;89.24
7760;BME280;3924;48.830;9.262;2022-10-16T04:58:26;98529.97;;;15.03;88.92
7760;BME280;3924;48.830;9.262;2022-10-16T05:00:53;98535.09;;;15.05;89.23
7760;BME280;3924;48.830;9.262;2022-10-16T05:03:19;98531.56;;;15.04;89.41
7760;BME280;3924;48.830;9.262;2022-10-16T05:05:46;98532.69;;;15.03;88.89
7760;BME280;3924;48.830;9.262;2022-10-16T05:08:14;98537.03;;;15.04;88.82
7760;BME280;3924;48.830;9.262;2022-10-16T05:10:42;98534.63;;;15.03;88.76
7760;BME280;3924;48.830;9.262;2022-10-16T05:13:09;98542.81;;;15.03;89.24
7760;BME280;3924;48.830;9.262;2022-10-16T05:15:35;98542.81;;;15.03;89.22
7760;BME280;3924;48.830;9.262;2022-10-16T05:18:02;98544.72;;;15.02;89.00
7760;BME280;3924;48.830;9.262;2022-10-16T05:20:29;98532.19;;;15.01;89.77
7760;BME280;3924;48.830;9.262;2022-10-16T05:22:55;98534.44;;;14.99;89.65
7760;BME280;3924;48.830;9.262;2022-10-16T05:25:21;98533.97;;;14.97;89.18
7760;BME280;3924;48.830;9.262;2022-10-16T05:27:49;98536.19;;;14.95;88.83
7760;BME280;3924;48.830;9.262;2022-10-16T05:30:16;98537.34;;;14.94;89.43
7760;BME280;3924;48.830;9.262;2022-10-16T05:32:47;98538.78;;;14.92;89.28
7760;BME280;3924;48.830;9.262;2022-10-16T05:35:15;98536.38;;;14.90;89.33
7760;BME280;3924;48.830;9.262;2022-10-16T05:37:42;98535.88;;;14.88;89.41
7760;BME280;3924;48.830;9.262;2022-10-16T05:40:09;98535.41;;;14.86;89.65
7760;BME280;3924;48.830;9.262;2022-10-16T05:42:36;98543.94;;;14.85;89.42
7760;BME280;3924;48.830;9.262;2022-10-16T05:45:04;98549.22;;;14.81;89.49
7760;BME280;3924;48.830;9.262;2022-10-16T05:47:31;98554.66;;;14.81;89.20
7760;BME280;3924;48.830;9.262;2022-10-16T05:49:57;98561.56;;;14.78;90.10
7760;BME280;3924;48.830;9.262;2022-10-16T05:52:24;98560.31;;;14.76;89.75
7760;BME280;3924;48.830;9.262;2022-10-16T05:54:50;98556.78;;;14.75;89.90
7760;BME280;3924;48.830;9.262;2022-10-16T05:57:17;98555.13;;;14.74;89.46
7760;BME280;3924;48.830;9.262;2022-10-16T05:59:43;98564.63;;;14.77;90.30
7760;BME280;3924;48.830;9.262;2022-10-16T06:02:13;98571.69;;;14.78;89.91
7760;BME280;3924;48.830;9.262;2022-10-16T06:04:40;98571.84;;;14.82;90.00
7760;BME280;3924;48.830;9.262;2022-10-16T06:07:07;98571.84;;;14.82;89.54
7760;BME280;3924;48.830;9.262;2022-10-16T06:09:34;98572.66;;;14.82;89.96
7760;BME280;3924;48.830;9.262;2022-10-16T06:12:00;98579.72;;;14.83;90.55
7760;BME280;3924;48.830;9.262;2022-10-16T06:14:27;98574.75;;;14.85;90.35
7760;BME280;3924;48.830;9.262;2022-10-16T06:16:53;98574.75;;;14.85;89.64
7760;BME280;3924;48.830;9.262;2022-10-16T06:19:19;98579.88;;;14.87;89.50
7760;BME280;3924;48.830;9.262;2022-10-16T06:21:46;98582.28;;;14.88;89.29
7760;BME280;3924;48.830;9.262;2022-10-16T06:24:13;98587.13;;;14.91;89.50
7760;BME280;3924;48.830;9.262;2022-10-16T06:26:39;98596.13;;;14.92;89.55
7760;BME280;3924;48.830;9.262;2022-10-16T06:29:05;98594.66;;;14.94;90.06
7760;BME280;3924;48.830;9.262;2022-10-16T06:31:32;98592.72;;;14.95;89.84
7760;BME280;3924;48.830;9.262;2022-10-16T06:34:00;98588.88;;;14.96;89.45
7760;BME280;3924;48.830;9.262;2022-10-16T06:36:27;98595.16;;;14.96;90.04
7760;BME280;3924;48.830;9.262;2022-10-16T06:38:54;98596.75;;;14.97;89.99
7760;BME280;3924;48.830;9.262;2022-10-16T06:41:21;98594.97;;;15.01;90.25
7760;BME280;3924;48.830;9.262;2022-10-16T06:43:48;98596.75;;;15.06;89.83
7760;BME280;3924;48.830;9.262;2022-10-16T06:46:17;98593.38;;;15.09;89.28
7760;BME280;3924;48.830;9.262;2022-10-16T06:48:44;98591.16;;;15.11;89.53
7760;BME280;3924;48.830;9.262;2022-10-16T06:51:14;98600.16;;;15.12;90.19
7760;BME280;3924;48.830;9.262;2022-10-16T06:53:43;98613.13;;;15.15;89.94
7760;BME280;3924;48.830;9.262;2022-10-16T06:56:29;98617.97;;;15.18;90.18
7760;BME280;3924;48.830;9.262;2022-10-16T06:58:58;98625.03;;;15.19;89.47
7760;BME280;3924;48.830;9.262;2022-10-16T07:01:26;98625.19;;;15.22;90.30
7760;BME280;3924;48.830;9.262;2022-10-16T07:03:52;98633.72;;;15.21;89.95
7760;BME280;3924;48.830;9.262;2022-10-16T07:06:21;98633.88;;;15.24;89.55
7760;BME280;3924;48.830;9.262;2022-10-16T07:08:49;98627.28;;;15.25;89.30
7760;BME280;3924;48.830;9.262;2022-10-16T07:11:18;98641.59;;;15.31;89.93
7760;BME280;3924;48.830;9.262;2022-10-16T07:13:46;98639.47;;;15.37;89.95
7760;BME280;3924;48.830;9.262;2022-10-16T07:16:22;98641.25;;;15.41;89.12
7760;BME280;3924;48.830;9.262;2022-10-16T07:18:49;98652.03;;;15.46;89.70
7760;BME280;3924;48.830;9.262;2022-10-16T07:21:21;98656.03;;;15.49;89.42
7760;BME280;3924;48.830;9.262;2022-10-16T07:24:01;98651.38;;;15.49;89.65
7760;BME280;3924;48.830;9.262;2022-10-16T07:26:29;98661.84;;;15.47;89.75
7760;BME280;3924;48.830;9.262;2022-10-16T07:31:31;98669.56;;;15.45;89.82
7760;BME280;3924;48.830;9.262;2022-10-16T07:33:59;98677.75;;;15.45;89.65
7760;BME280;3924;48.830;9.262;2022-10-16T07:36:26;98676.16;;;15.44;89.83
7760;BME280;3924;48.830;9.262;2022-10-16T07:38:52;98671.00;;;15.43;89.48
7760;BME280;3924;48.830;9.262;2022-10-16T07:41:25;98683.84;;;15.42;89.87
7760;BME280;3924;48.830;9.262;2022-10-16T07:43:52;98679.19;;;15.43;90.25
7760;BME280;3924;48.830;9.262;2022-10-16T07:46:20;98679.97;;;15.43;89.11
7760;BME280;3924;48.830;9.262;2022-10-16T07:48:47;98679.34;;;15.46;90.58
7760;BME280;3924;48.830;9.262;2022-10-16T07:51:25;98674.38;;;15.48;89.61
7760;BME280;3924;48.830;9.262;2022-10-16T07:53:52;98685.94;;;15.54;90.38
7760;BME280;3924;48.830;9.262;2022-10-16T07:56:20;98683.06;;;15.59;89.46
7760;BME280;3924;48.830;9.262;2022-10-16T07:58:47;98692.72;;;15.65;89.38
7760;BME280;3924;48.830;9.262;2022-10-16T08:01:16;98693.34;;;15.71;90.23
7760;BME280;3924;48.830;9.262;2022-10-16T08:03:44;98692.06;;;15.77;89.20
7760;BME280;3924;48.830;9.262;2022-10-16T08:06:11;98698.97;;;15.83;89.69
7760;BME280;3924;48.830;9.262;2022-10-16T08:08:37;98683.03;;;15.85;89.68
7760;BME280;3924;48.830;9.262;2022-10-16T08:11:04;98694.31;;;15.92;89.62
7760;BME280;3924;48.830;9.262;2022-10-16T08:13:31;98687.53;;;15.98;88.70
7760;BME280;3924;48.830;9.262;2022-10-16T08:15:57;98698.13;;;16.08;89.59
7760;BME280;3924;48.830;9.262;2022-10-16T08:18:24;98700.03;;;16.17;88.56
7760;BME280;3924;48.830;9.262;2022-10-16T08:20:58;98690.66;;;16.26;88.75
7760;BME280;3924;48.830;9.262;2022-10-16T08:23:25;98695.63;;;16.33;89.17
7760;BME280;3924;48.830;9.262;2022-10-16T08:25:54;98689.03;;;16.42;88.51
7760;BME280;3924;48.830;9.262;2022-10-16T08:28:21;98688.34;;;16.54;88.64
7760;BME280;3924;48.830;9.262;2022-10-16T08:30:48;98700.50;;;16.74;88.23
7760;BME280;3924;48.830;9.262;2022-10-16T08:33:15;98703.09;;;17.00;87.96
7760;BME280;3924;48.830;9.262;2022-10-16T08:35:41;98714.44;;;17.19;88.25
7760;BME280;3924;48.830;9.262;2022-10-16T08:38:08;98725.59;;;17.35;87.65
7760;BME280;3924;48.830;9.262;2022-10-16T08:40:37;98722.81;;;17.44;87.30
7760;BME280;3924;48.830;9.262;2022-10-16T08:45:56;98716.53;;;17.64;86.62
7760;BME280;3924;48.830;9.262;2022-10-16T08:51:13;98721.63;;;17.74;86.28
7760;BME280;3924;48.830;9.262;2022-10-16T08:53:53;98717.75;;;17.75;86.47
7760;BME280;3924;48.830;9.262;2022-10-16T08:56:21;98717.09;;;17.79;87.41
7760;BME280;3924;48.830;9.262;2022-10-16T08:58:48;98720.28;;;17.81;86.92
7760;BME280;3924;48.830;9.262;2022-10-16T09:01:20;98714.91;;;17.84;86.74
7760;BME280;3924;48.830;9.262;2022-10-16T09:04:07;98716.56;;;17.85;86.93
7760;BME280;3924;48.830;9.262;2022-10-16T09:06:47;98714.28;;;17.87;86.67
7760;BME280;3924;48.830;9.262;2022-10-16T09:15:14;98726.22;;;18.03;85.32
7760;BME280;3924;48.830;9.262;2022-10-16T09:25:32;98719.06;;;18.23;85.36
7760;BME280;3924;48.830;9.262;2022-10-16T09:27:59;98730.78;;;18.33;85.33
7760;BME280;3924;48.830;9.262;2022-10-16T09:30:28;98740.63;;;18.46;84.98
7760;BME280;3924;48.830;9.262;2022-10-16T09:32:58;98742.69;;;18.49;84.33
7760;BME280;3924;48.830;9.262;2022-10-16T09:35:54;98745.19;;;18.42;84.54
7760;BME280;3924;48.830;9.262;2022-10-16T09:40:48;98750.44;;;18.35;84.46
7760;BME280;3924;48.830;9.262;2022-10-16T09:43:39;98758.94;;;18.42;84.11
7760;BME280;3924;48.830;9.262;2022-10-16T09:46:08;98750.09;;;18.36;84.21
7760;BME280;3924;48.830;9.262;2022-10-16T09:48:48;98752.75;;;18.33;84.80
7760;BME280;3924;48.830;9.262;2022-10-16T09:51:35;98754.34;;;18.34;84.61
7760;BME280;3924;48.830;9.262;2022-10-16T09:54:14;98756.19;;;18.42;84.81
7760;BME280;3924;48.830;9.262;2022-10-16T09:56:41;98749.75;;;18.71;84.38
7760;BME280;3924;48.830;9.262;2022-10-16T09:59:13;98757.66;;;19.21;82.29
7760;BME280;3924;48.830;9.262;2022-10-16T10:02:02;98754.59;;;19.87;81.78
7760;BME280;3924;48.830;9.262;2022-10-16T10:04:39;98764.91;;;19.90;81.58
7760;BME280;3924;48.830;9.262;2022-10-16T10:07:17;98759.66;;;19.73;81.36
7760;BME280;3924;48.830;9.262;2022-10-16T10:09:45;98775.19;;;19.93;81.73
7760;BME280;3924;48.830;9.262;2022-10-16T10:12:29;98767.38;;;19.95;81.58
7760;BME280;3924;48.830;9.262;2022-10-16T10:15:06;98778.19;;;19.88;81.56
7760;BME280;3924;48.830;9.262;2022-10-16T10:17:33;98774.78;;;19.79;81.51
7760;BME280;3924;48.830;9.262;2022-10-16T10:20:21;98779.06;;;19.77;80.92
7760;BME280;3924;48.830;9.262;2022-10-16T10:22:50;98773.06;;;19.75;81.25
7760;BME280;3924;48.830;9.262;2022-10-16T10:28:24;98769.00;;;19.97;79.60
7760;BME280;3924;48.830;9.262;2022-10-16T10:31:17;98771.00;;;20.40;79.80
7760;BME280;3924;48.830;9.262;2022-10-16T10:36:59;98766.69;;;21.18;78.00
7760;BME280;3924;48.830;9.262;2022-10-16T10:39:36;98770.63;;;21.48;77.52
7760;BME280;3924;48.830;9.262;2022-10-16T10:47:56;98769.06;;;22.44;75.01
7760;BME280;3924;48.830;9.262;2022-10-16T10:53:38;98768.50;;;22.16;75.30
7760;BME280;3924;48.830;9.262;2022-10-16T10:56:17;98775.19;;;22.15;74.78
7760;BME280;3924;48.830;9.262;2022-10-16T11:06:48;98774.72;;;22.51;73.46
7760;BME280;3924;48.830;9.262;2022-10-16T11:09:38;98768.66;;;22.65;72.72
7760;BME280;3924;48.830;9.262;2022-10-16T11:12:18;98763.22;;;22.91;72.86
7760;BME280;3924;48.830;9.262;2022-10-16T11:14:57;98756.28;;;23.01;72.16
7760;BME280;3924;48.830;9.262;2022-10-16T11:17:33;98755.75;;;22.73;72.45
7760;BME280;3924;48.830;9.262;2022-10-16T11:20:13;98755.09;;;22.37;72.92
7760;BME280;3924;48.830;9.262;2022-10-16T11:22:47;98752.13;;;22.46;72.70
7760;BME280;3924;48.830;9.262;2022-10-16T11:25:29;98751.19;;;22.84;71.51
7760;BME280;3924;48.830;9.262;2022-10-16T11:30:31;98747.13;;;23.50;69.45
7760;BME280;3924;48.830;9.262;2022-10-16T11:35:41;98752.66;;;23.77;68.98
7760;BME280;3924;48.830;9.262;2022-10-16T11:38:25;98738.06;;;23.80;68.41
7760;BME280;3924;48.830;9.262;2022-10-16T11:40:58;98744.78;;;23.79;68.32
7760;BME280;3924;48.830;9.262;2022-10-16T11:43:37;98743.19;;;23.78;68.17
7760;BME280;3924;48.830;9.262;2022-10-16T11:46:19;98741.97;;;23.75;67.95
7760;BME280;3924;48.830;9.262;2022-10-16T11:49:04;98733.38;;;23.84;67.48
7760;BME280;3924;48.830;9.262;2022-10-16T11:56:48;98737.88;;;23.95;66.87
7760;BME280;3924;48.830;9.262;2022-10-16T12:01:47;98741.94;;;24.05;65.86
7760;BME280;3924;48.830;9.262;2022-10-16T12:04:30;98743.13;;;24.04;65.86
7760;BME280;3924;48.830;9.262;2022-10-16T12:07:05;98743.13;;;24.04;66.20
7760;BME280;3924;48.830;9.262;2022-10-16T12:09:37;98729.75;;;24.13;65.11
7760;BME280;3924;48.830;9.262;2022-10-16T12:12:04;98732.28;;;24.25;64.59
7760;BME280;3924;48.830;9.262;2022-10-16T12:14:39;98735.91;;;24.29;64.33
7760;BME280;3924;48.830;9.262;2022-10-16T12:17:34;98719.69;;;24.32;63.66
7760;BME280;3924;48.830;9.262;2022-10-16T12:20:26;98729.69;;;24.40;63.85
7760;BME280;3924;48.830;9.262;2022-10-16T12:23:19;98736.00;;;24.37;63.91
7760;BME280;3924;48.830;9.262;2022-10-16T12:25:54;98725.19;;;23.94;64.02
7760;BME280;3924;48.830;9.262;2022-10-16T12:28:25;98732.88;;;23.48;65.45
7760;BME280;3924;48.830;9.262;2022-10-16T12:30:58;98729.94;;;23.11;65.96
7760;BME280;3924;48.830;9.262;2022-10-16T12:33:30;98730.84;;;23.18;65.57
7760;BME280;3924;48.830;9.262;2022-10-16T12:36:47;98727.34;;;23.22;64.93
7760;BME280;3924;48.830;9.262;2022-10-16T12:38:51;98724.94;;;23.46;64.32
7760;BME280;3924;48.830;9.262;2022-10-16T12:41:29;98736.66;;;23.63;63.64
7760;BME280;3924;48.830;9.262;2022-10-16T12:43:56;98738.03;;;23.50;64.25
7760;BME280;3924;48.830;9.262;2022-10-16T12:46:35;98727.06;;;23.87;62.99
7760;BME280;3924;48.830;9.262;2022-10-16T12:51:39;98732.34;;;23.65;63.33
7760;BME280;3924;48.830;9.262;2022-10-16T12:54:18;98734.56;;;23.83;62.87
7760;BME280;3924;48.830;9.262;2022-10-16T13:00:04;98736.06;;;24.10;61.54
7760;BME280;3924;48.830;9.262;2022-10-16T13:13:18;98747.75;;;23.40;62.36
7760;BME280;3924;48.830;9.262;2022-10-16T13:23:56;98747.72;;;23.93;60.89
7760;BME280;3924;48.830;9.262;2022-10-16T13:29:01;98745.47;;;24.36;59.31
7760;BME280;3924;48.830;9.262;2022-10-16T13:31:28;98748.69;;;24.38;60.24
7760;BME280;3924;48.830;9.262;2022-10-16T13:33:58;98748.50;;;24.23;59.87
7760;BME280;3924;48.830;9.262;2022-10-16T13:39:21;98746.84;;;23.85;60.54
7760;BME280;3924;48.830;9.262;2022-10-16T13:42:11;98750.09;;;23.61;60.98
7760;BME280;3924;48.830;9.262;2022-10-16T13:44:44;98756.81;;;23.37;61.79
7760;BME280;3924;48.830;9.262;2022-10-16T13:47:19;98750.22;;;23.18;62.12
7760;BME280;3924;48.830;9.262;2022-10-16T13:49:46;98747.66;;;23.06;61.73
7760;BME280;3924;48.830;9.262;2022-10-16T13:52:20;98750.66;;;22.98;62.49
7760;BME280;3924;48.830;9.262;2022-10-16T13:54:49;98756.88;;;22.91;62.39
7760;BME280;3924;48.830;9.262;2022-10-16T13:57:16;98753.69;;;22.89;62.50
7760;BME280;3924;48.830;9.262;2022-10-16T13:59:53;98747.88;;;22.94;62.81
7760;BME280;3924;48.830;9.262;2022-10-16T14:02:26;98749.06;;;22.97;62.59
7760;BME280;3924;48.830;9.262;2022-10-16T14:04:54;98755.28;;;22.90;62.98
7760;BME280;3924;48.830;9.262;2022-10-16T14:07:27;98747.91;;;22.75;62.71
7760;BME280;3924;48.830;9.262;2022-10-16T14:09:54;98753.91;;;22.57;63.12
7760;BME280;3924;48.830;9.262;2022-10-16T14:12:22;98744.56;;;22.43;64.14
7760;BME280;3924;48.830;9.262;2022-10-16T14:14:54;98746.34;;;22.31;63.71
7760;BME280;3924;48.830;9.262;2022-10-16T14:17:26;98739.00;;;22.20;63.88
7760;BME280;3924;48.830;9.262;2022-10-16T14:19:56;98744.38;;;22.13;63.87
7760;BME280;3924;48.830;9.262;2022-10-16T14:22:40;98747.41;;;22.07;64.51
7760;BME280;3924;48.830;9.262;2022-10-16T14:28:17;98752.88;;;22.04;64.09
7760;BME280;3924;48.830;9.262;2022-10-16T14:30:55;98751.97;;;22.00;64.82
7760;BME280;3924;48.830;9.262;2022-10-16T14:33:33;98756.28;;;21.97;65.60
7760;BME280;3924;48.830;9.262;2022-10-16T14:38:38;98757.78;;;21.95;65.16
7760;BME280;3924;48.830;9.262;2022-10-16T14:41:06;98761.28;;;21.92;65.74
7760;BME280;3924;48.830;9.262;2022-10-16T14:46:02;98762.31;;;21.83;65.49
7760;BME280;3924;48.830;9.262;2022-10-16T14:48:29;98760.25;;;21.80;65.65
7760;BME280;3924;48.830;9.262;2022-10-16T14:50:56;98764.53;;;21.78;65.92
7760;BME280;3924;48.830;9.262;2022-10-16T14:53:22;98767.31;;;21.78;65.93
7760;BME280;3924;48.830;9.262;2022-10-16T14:55:49;98769.78;;;21.83;65.52
7760;BME280;3924;48.830;9.262;2022-10-16T14:58:18;98762.72;;;21.85;66.01
7760;BME280;3924;48.830;9.262;2022-10-16T15:00:45;98763.53;;;21.86;65.46
7760;BME280;3924;48.830;9.262;2022-10-16T15:03:12;98768.63;;;21.84;65.21
7760;BME280;3924;48.830;9.262;2022-10-16T15:05:39;98774.00;;;21.77;66.67
7760;BME280;3924;48.830;9.262;2022-10-16T15:08:06;98761.22;;;21.69;67.03
7760;BME280;3924;48.830;9.262;2022-10-16T15:10:37;98761.03;;;21.62;66.94
7760;BME280;3924;48.830;9.262;2022-10-16T15:13:04;98761.31;;;21.56;66.53
7760;BME280;3924;48.830;9.262;2022-10-16T15:15:36;98758.09;;;21.54;67.41
7760;BME280;3924;48.830;9.262;2022-10-16T15:18:03;98764.25;;;21.64;67.55
7760;BME280;3924;48.830;9.262;2022-10-16T15:20:32;98762.44;;;21.71;67.38
7760;BME280;3924;48.830;9.262;2022-10-16T15:23:05;98762.50;;;21.75;66.81